Time;durP1;ratioP1;P1;durP2;ratioP2;P2;SDS_P1;SDS_P2;PMS_P1;PMS_P2;Temp;Humidity;BMP_temperature;BMP_pressure;BME280_temperature;BME280_humidity;BME280_pressure;Samples;Min_cycle;Max_cycle;Signal;HPM_P1;HPM_P2
2021/04/16 00:01:06;;;;;;;6.53;5.30;;;2.30;99.90;;;;;;5027331;28;20193;-69
2021/04/16 00:03:32;;;;;;;6.60;5.50;;;2.30;99.90;;;;;;5027904;28;20217;-64
2021/04/16 00:05:58;;;;;;;6.20;5.17;;;2.30;99.90;;;;;;5029297;28;20224;-68
2021/04/16 00:08:32;;;;;;;7.87;5.17;;;2.30;99.90;;;;;;5029867;28;20214;-67
2021/04/16 00:11:02;;;;;;;6.18;5.03;;;2.30;99.90;;;;;;5028650;28;20196;-68
2021/04/16 00:13:28;;;;;;;6.78;5.93;;;2.30;99.90;;;;;;5027684;28;20284;-68
2021/04/16 00:15:55;;;;;;;8.15;6.60;;;2.30;99.90;;;;;;5026658;28;20185;-63
2021/04/16 00:18:25;;;;;;;6.88;5.88;;;2.30;99.90;;;;;;5028553;28;20185;-68
2021/04/16 00:20:51;;;;;;;7.03;5.80;;;2.40;99.90;;;;;;5028551;28;20205;-68
2021/04/16 00:23:16;;;;;;;6.50;5.78;;;2.30;99.90;;;;;;5028664;28;20188;-64
2021/04/16 00:25:42;;;;;;;7.40;5.90;;;2.30;99.90;;;;;;5028459;28;20181;-63
2021/04/16 00:28:09;;;;;;;6.70;5.90;;;2.30;99.90;;;;;;5028675;28;20230;-64
2021/04/16 00:30:56;;;;;;;5.72;4.80;;;2.30;99.90;;;;;;5027537;28;20196;-63
2021/04/16 00:33:23;;;;;;;6.70;5.45;;;2.30;99.90;;;;;;5026560;28;20213;-64
2021/04/16 00:35:49;;;;;;;6.65;5.80;;;2.40;99.90;;;;;;5028060;28;20524;-64
2021/04/16 00:38:17;;;;;;;6.53;5.80;;;2.40;99.90;;;;;;5029610;28;20268;-63
2021/04/16 00:40:56;;;;;;;7.30;6.45;;;2.40;99.90;;;;;;5027918;28;20200;-63
2021/04/16 00:43:23;;;;;;;5.95;5.10;;;2.30;99.90;;;;;;5028646;28;20561;-63
2021/04/16 00:45:54;;;;;;;7.20;5.57;;;2.30;99.90;;;;;;5028159;28;20190;-63
2021/04/16 00:48:29;;;;;;;7.18;6.00;;;2.30;99.90;;;;;;5028326;28;20271;-63
2021/04/16 00:50:57;;;;;;;8.07;5.70;;;2.30;99.90;;;;;;5027552;28;20210;-63
2021/04/16 00:53:24;;;;;;;7.90;6.22;;;2.30;99.90;;;;;;5028464;28;20335;-63
2021/04/16 00:55:50;;;;;;;8.25;6.20;;;2.30;99.90;;;;;;5027715;28;20690;-63
2021/04/16 00:58:18;;;;;;;8.00;6.20;;;2.30;99.90;;;;;;5024787;28;20366;-61
2021/04/16 01:00:47;;;;;;;8.55;6.47;;;2.30;99.90;;;;;;5018536;28;20296;-62
2021/04/16 01:03:12;;;;;;;8.45;7.03;;;2.30;99.90;;;;;;5026120;28;20281;-62
2021/04/16 01:05:38;;;;;;;8.80;6.97;;;2.30;99.90;;;;;;5027545;28;20244;-62
2021/04/16 01:08:05;;;;;;;9.70;7.30;;;2.30;99.90;;;;;;5041827;28;20989;-62
2021/04/16 01:10:31;;;;;;;8.50;6.10;;;2.30;99.90;;;;;;5028037;28;20548;-62
2021/04/16 01:12:57;;;;;;;9.50;7.33;;;2.20;99.90;;;;;;5026889;28;20181;-62
2021/04/16 01:15:31;;;;;;;7.90;6.60;;;2.30;99.90;;;;;;5030945;28;20189;-62
2021/04/16 01:18:04;;;;;;;7.95;6.35;;;2.30;99.90;;;;;;5027768;28;20188;-62
2021/04/16 01:20:37;;;;;;;7.18;6.47;;;2.30;99.90;;;;;;5027618;28;20188;-61
2021/04/16 01:23:26;;;;;;;7.18;5.93;;;2.30;99.90;;;;;;5029146;28;20347;-62
2021/04/16 01:25:55;;;;;;;7.32;6.15;;;2.30;99.90;;;;;;5027995;28;20199;-61
2021/04/16 01:28:20;;;;;;;8.35;6.50;;;2.30;99.90;;;;;;5027645;28;20558;-62
2021/04/16 01:31:03;;;;;;;10.70;7.07;;;2.30;99.90;;;;;;5028033;28;20201;-62
2021/04/16 01:33:32;;;;;;;10.50;7.45;;;2.20;99.90;;;;;;5024790;28;20177;-62
2021/04/16 01:35:58;;;;;;;8.07;6.28;;;2.20;99.90;;;;;;5028392;28;20280;-62
2021/04/16 01:38:24;;;;;;;7.20;6.03;;;2.20;99.90;;;;;;5028155;28;20195;-63
2021/04/16 01:40:50;;;;;;;6.90;6.20;;;2.30;99.90;;;;;;5025821;28;20607;-63
2021/04/16 01:43:27;;;;;;;7.17;6.17;;;2.30;99.90;;;;;;5026046;28;20447;-63
2021/04/16 01:46:28;;;;;;;8.77;6.60;;;2.30;99.90;;;;;;5031436;28;20467;-62
2021/04/16 01:48:59;;;;;;;9.52;7.80;;;2.30;99.90;;;;;;4986367;28;20679;-63
2021/04/16 01:51:29;;;;;;;10.32;7.82;;;2.30;99.90;;;;;;5023411;28;20294;-63
2021/04/16 01:54:20;;;;;;;10.10;7.90;;;2.30;99.90;;;;;;5031400;28;20494;-63
2021/04/16 01:56:47;;;;;;;10.88;8.05;;;2.30;99.90;;;;;;5019898;28;20186;-63
2021/04/16 01:59:16;;;;;;;11.43;7.65;;;2.40;99.90;;;;;;5031833;28;20192;-63
2021/04/16 02:01:44;;;;;;;8.73;7.28;;;2.40;99.90;;;;;;5030524;28;20189;-63
2021/04/16 02:04:12;;;;;;;10.40;8.00;;;2.40;99.90;;;;;;5026361;28;20186;-63
2021/04/16 02:06:38;;;;;;;10.40;8.15;;;2.40;99.90;;;;;;5032648;28;20174;-63
2021/04/16 02:09:07;;;;;;;11.68;8.55;;;2.40;99.90;;;;;;5030704;28;20679;-63
2021/04/16 02:11:34;;;;;;;11.85;8.68;;;2.40;99.90;;;;;;5018611;28;20526;-63
2021/04/16 02:14:00;;;;;;;13.80;8.85;;;2.40;99.90;;;;;;5028840;28;20185;-63
2021/04/16 02:16:26;;;;;;;12.57;8.80;;;2.40;99.90;;;;;;5030771;28;20207;-64
2021/04/16 02:18:53;;;;;;;13.00;8.30;;;2.40;99.90;;;;;;5030281;28;20444;-64
2021/04/16 02:21:19;;;;;;;12.20;9.15;;;2.40;99.90;;;;;;5030504;28;20247;-62
2021/04/16 02:23:44;;;;;;;15.63;9.30;;;2.40;99.90;;;;;;5029794;28;20192;-62
2021/04/16 02:26:10;;;;;;;11.23;8.30;;;2.40;99.90;;;;;;5046251;28;20229;-62
2021/04/16 02:28:36;;;;;;;12.37;9.80;;;2.40;99.90;;;;;;5029428;28;20291;-62
2021/04/16 02:31:01;;;;;;;12.73;9.07;;;2.40;99.90;;;;;;5030380;28;20201;-62
2021/04/16 02:33:27;;;;;;;13.10;9.27;;;2.40;99.90;;;;;;5030467;28;20293;-63
2021/04/16 02:35:52;;;;;;;12.00;8.60;;;2.50;99.90;;;;;;5031879;28;20280;-64
2021/04/16 02:38:18;;;;;;;11.23;8.40;;;2.40;99.90;;;;;;5029631;28;20596;-63
2021/04/16 02:40:43;;;;;;;11.87;9.13;;;2.40;99.90;;;;;;5031585;28;20540;-64
2021/04/16 02:43:10;;;;;;;11.73;8.53;;;2.40;99.90;;;;;;5027189;28;20272;-63
2021/04/16 02:45:35;;;;;;;14.10;10.32;;;2.40;99.90;;;;;;5027794;28;20273;-63
2021/04/16 02:48:01;;;;;;;12.73;9.40;;;2.50;99.90;;;;;;5028591;28;20217;-64
2021/04/16 02:50:30;;;;;;;12.13;8.63;;;2.50;99.90;;;;;;5046407;28;20519;-63
2021/04/16 02:52:56;;;;;;;11.68;8.38;;;2.50;99.90;;;;;;5045018;28;20184;-62
2021/04/16 02:55:21;;;;;;;11.80;8.80;;;2.50;99.90;;;;;;5030243;28;20215;-63
2021/04/16 02:57:47;;;;;;;11.40;8.60;;;2.50;99.90;;;;;;5030214;28;20497;-63
2021/04/16 03:00:16;;;;;;;10.97;7.83;;;2.50;99.90;;;;;;5030175;28;20197;-63
2021/04/16 03:02:42;;;;;;;11.70;8.48;;;2.50;99.90;;;;;;5027266;28;20193;-63
2021/04/16 03:05:08;;;;;;;11.53;8.50;;;2.50;99.90;;;;;;5030607;28;20976;-63
2021/04/16 03:07:33;;;;;;;12.10;8.93;;;2.50;99.90;;;;;;5018647;28;20190;-62
2021/04/16 03:09:59;;;;;;;10.77;7.83;;;2.50;99.90;;;;;;5014036;28;20231;-62
2021/04/16 03:12:25;;;;;;;8.83;7.63;;;2.50;99.90;;;;;;5028077;28;20197;-63
2021/04/16 03:14:50;;;;;;;11.73;8.20;;;2.50;99.90;;;;;;5031040;28;20211;-63
2021/04/16 03:17:16;;;;;;;11.73;8.33;;;2.50;99.90;;;;;;5031642;28;20178;-63
2021/04/16 03:19:41;;;;;;;11.47;8.50;;;2.50;99.90;;;;;;5030222;28;20616;-63
2021/04/16 03:22:07;;;;;;;13.47;8.70;;;2.50;99.90;;;;;;5027668;28;20189;-64
2021/04/16 03:24:33;;;;;;;11.77;8.67;;;2.50;99.90;;;;;;5031317;28;20181;-63
2021/04/16 03:26:58;;;;;;;11.00;8.03;;;2.40;99.90;;;;;;5028714;28;20308;-64
2021/04/16 03:29:44;;;;;;;13.80;9.50;;;2.50;99.90;;;;;;5029555;28;20595;-63
2021/04/16 03:32:09;;;;;;;14.05;10.30;;;2.50;99.90;;;;;;5028480;28;20189;-63
2021/04/16 03:34:35;;;;;;;14.03;9.10;;;2.50;99.90;;;;;;5030202;28;20190;-63
2021/04/16 03:37:00;;;;;;;13.70;10.30;;;2.50;99.90;;;;;;5029643;28;20186;-63
2021/04/16 03:39:26;;;;;;;16.27;10.80;;;2.60;99.90;;;;;;5030827;28;20185;-63
2021/04/16 03:41:52;;;;;;;14.70;10.17;;;2.60;99.90;;;;;;5026601;28;20276;-63
2021/04/16 03:44:17;;;;;;;12.90;10.37;;;2.50;99.90;;;;;;5029538;28;20199;-64
2021/04/16 03:46:43;;;;;;;15.57;10.17;;;2.50;99.90;;;;;;5029176;28;20439;-64
2021/04/16 03:49:09;;;;;;;13.43;10.10;;;2.50;99.90;;;;;;5029693;28;20221;-64
2021/04/16 03:51:53;;;;;;;14.57;10.10;;;2.60;99.90;;;;;;5029510;28;20196;-63
2021/04/16 03:54:18;;;;;;;12.45;9.20;;;2.60;99.90;;;;;;5028601;28;20668;-63
2021/04/16 03:56:44;;;;;;;11.10;8.83;;;2.60;99.90;;;;;;5029942;28;20196;-63
2021/04/16 03:59:10;;;;;;;12.90;10.00;;;2.60;99.90;;;;;;5027792;28;20193;-63
2021/04/16 04:01:36;;;;;;;12.67;9.60;;;2.60;99.90;;;;;;5028717;28;20654;-63
2021/04/16 04:04:02;;;;;;;11.45;9.10;;;2.60;99.90;;;;;;5028822;28;20520;-64
2021/04/16 04:06:28;;;;;;;14.25;10.10;;;2.60;99.90;;;;;;5042724;28;20495;-63
2021/04/16 04:08:53;;;;;;;11.60;9.13;;;2.50;99.90;;;;;;5026550;28;20345;-63
2021/04/16 04:11:20;;;;;;;14.27;8.70;;;2.50;99.90;;;;;;5028177;28;20270;-63
2021/04/16 04:13:45;;;;;;;12.63;9.10;;;2.60;99.90;;;;;;5029303;28;20182;-64
2021/04/16 04:16:11;;;;;;;11.60;9.20;;;2.60;99.90;;;;;;5032576;28;20173;-64
2021/04/16 04:18:36;;;;;;;12.10;9.83;;;2.60;99.90;;;;;;5044667;28;20194;-64
2021/04/16 04:21:03;;;;;;;11.83;8.40;;;2.60;99.90;;;;;;5019521;28;20206;-65
2021/04/16 04:23:28;;;;;;;11.55;8.18;;;2.60;99.90;;;;;;5005178;28;20601;-64
2021/04/16 04:25:54;;;;;;;10.17;8.20;;;2.60;99.90;;;;;;5007810;28;20220;-64
2021/04/16 04:28:20;;;;;;;10.13;8.57;;;2.60;99.90;;;;;;5019102;28;20257;-65
2021/04/16 04:30:46;;;;;;;12.57;8.63;;;2.60;99.90;;;;;;5008933;28;20191;-65
2021/04/16 04:33:12;;;;;;;10.90;8.30;;;2.70;99.90;;;;;;5009264;28;21337;-65
2021/04/16 04:35:37;;;;;;;10.37;8.73;;;2.60;99.90;;;;;;5018087;28;21224;-64
2021/04/16 04:38:04;;;;;;;10.10;8.00;;;2.60;99.90;;;;;;5007506;28;20439;-64
2021/04/16 04:40:30;;;;;;;10.38;8.75;;;2.60;99.90;;;;;;5012584;28;20178;-64
2021/04/16 04:42:56;;;;;;;10.87;8.60;;;2.60;99.90;;;;;;5026887;28;20247;-64
2021/04/16 04:45:23;;;;;;;10.80;8.07;;;2.60;99.90;;;;;;5028964;28;20188;-65
2021/04/16 04:47:48;;;;;;;11.07;8.05;;;2.60;99.90;;;;;;5024209;28;20933;-65
2021/04/16 04:50:14;;;;;;;11.87;8.47;;;2.60;99.90;;;;;;5029714;28;20181;-64
2021/04/16 04:52:41;;;;;;;9.63;7.20;;;2.60;99.90;;;;;;5028697;28;20201;-64
2021/04/16 04:55:18;;;;;;;11.60;9.63;;;2.60;99.90;;;;;;5029520;28;20639;-64
2021/04/16 04:57:43;;;;;;;12.00;9.23;;;2.60;99.90;;;;;;5028784;28;20186;-65
2021/04/16 05:00:11;;;;;;;11.20;7.87;;;2.60;99.90;;;;;;5028578;28;20182;-63
2021/04/16 05:02:37;;;;;;;10.73;8.50;;;2.60;99.90;;;;;;5026103;28;20190;-63
2021/04/16 05:05:04;;;;;;;9.65;7.65;;;2.60;99.90;;;;;;5029751;28;20189;-63
2021/04/16 05:07:29;;;;;;;10.30;8.07;;;2.60;99.90;;;;;;5028456;28;20185;-63
2021/04/16 05:09:55;;;;;;;8.93;7.70;;;2.60;99.90;;;;;;5028496;28;20236;-64
2021/04/16 05:12:20;;;;;;;9.90;8.40;;;2.60;99.90;;;;;;5027939;28;20181;-64
2021/04/16 05:14:46;;;;;;;10.20;8.10;;;2.60;99.90;;;;;;5031729;28;20192;-64
2021/04/16 05:17:11;;;;;;;9.90;8.33;;;2.60;99.90;;;;;;5028446;28;20518;-64
2021/04/16 05:19:37;;;;;;;9.00;7.30;;;2.60;99.90;;;;;;5028323;28;20189;-64
2021/04/16 05:22:05;;;;;;;9.13;7.50;;;2.60;99.90;;;;;;5029137;28;20181;-64
2021/04/16 05:24:34;;;;;;;10.55;7.35;;;2.60;99.90;;;;;;5027630;28;20178;-64
2021/04/16 05:27:03;;;;;;;9.90;8.40;;;2.60;99.90;;;;;;5029198;28;20192;-64
2021/04/16 05:29:28;;;;;;;10.50;8.23;;;2.60;99.90;;;;;;5027322;28;20244;-63
2021/04/16 05:31:54;;;;;;;9.67;7.80;;;2.60;99.90;;;;;;5028920;28;20174;-64
2021/04/16 05:34:20;;;;;;;10.90;8.65;;;2.60;99.90;;;;;;5029052;28;20250;-64
2021/04/16 05:36:47;;;;;;;10.27;7.70;;;2.60;99.90;;;;;;5028590;28;20392;-64
2021/04/16 05:39:12;;;;;;;12.45;9.20;;;2.60;99.90;;;;;;5029074;28;20204;-63
2021/04/16 05:41:38;;;;;;;10.20;8.53;;;2.60;99.90;;;;;;5027042;28;20547;-64
2021/04/16 05:44:04;;;;;;;12.20;9.70;;;2.70;99.90;;;;;;5028665;28;20262;-64
2021/04/16 05:46:30;;;;;;;9.45;8.45;;;2.70;99.90;;;;;;5027502;28;20243;-64
2021/04/16 05:48:56;;;;;;;10.67;8.60;;;2.80;99.90;;;;;;5031995;28;20235;-64
2021/04/16 05:51:21;;;;;;;11.57;7.90;;;2.80;99.90;;;;;;5020450;28;20181;-69
2021/04/16 05:53:47;;;;;;;9.80;8.33;;;2.90;99.90;;;;;;5021518;28;20182;-69
2021/04/16 05:56:12;;;;;;;11.43;9.30;;;2.90;99.90;;;;;;5027360;28;20645;-69
2021/04/16 05:58:38;;;;;;;14.83;8.20;;;2.90;99.90;;;;;;5043784;28;21000;-69
2021/04/16 06:01:04;;;;;;;11.43;8.80;;;2.90;99.90;;;;;;5028795;28;21010;-69
2021/04/16 06:03:29;;;;;;;10.07;8.33;;;3.00;99.90;;;;;;5028140;28;20224;-69
2021/04/16 06:05:58;;;;;;;10.97;7.63;;;2.90;99.90;;;;;;5037101;28;20233;-68
2021/04/16 06:08:24;;;;;;;10.98;8.23;;;2.90;99.90;;;;;;5024421;28;20209;-69
2021/04/16 06:10:50;;;;;;;9.55;7.90;;;2.90;99.90;;;;;;5028431;28;20177;-69
2021/04/16 06:13:15;;;;;;;8.60;7.20;;;2.90;99.90;;;;;;5028245;28;20543;-69
2021/04/16 06:15:41;;;;;;;9.20;7.10;;;3.00;99.90;;;;;;5028126;28;20178;-69
2021/04/16 06:18:07;;;;;;;9.40;7.03;;;3.00;99.90;;;;;;5028324;28;20509;-69
2021/04/16 06:20:32;;;;;;;10.03;7.70;;;2.90;99.90;;;;;;5027778;28;20225;-69
2021/04/16 06:22:58;;;;;;;9.80;7.20;;;3.00;99.90;;;;;;5028379;28;20186;-69
2021/04/16 06:25:31;;;;;;;8.55;7.03;;;3.00;99.90;;;;;;5026879;28;20227;-69
2021/04/16 06:27:57;;;;;;;9.75;8.13;;;3.00;99.90;;;;;;5016778;28;20188;-69
2021/04/16 06:30:23;;;;;;;8.90;7.65;;;3.00;99.90;;;;;;5031595;28;20300;-69
2021/04/16 06:33:26;;;;;;;9.57;7.30;;;3.00;99.90;;;;;;5031605;28;20205;-69
2021/04/16 06:35:59;;;;;;;8.52;7.30;;;3.00;99.90;;;;;;5022205;28;20182;-69
2021/04/16 06:38:29;;;;;;;9.32;7.13;;;2.90;99.90;;;;;;5031252;28;20185;-64
2021/04/16 06:40:56;;;;;;;9.35;7.85;;;3.00;99.90;;;;;;5029480;28;20200;-64
2021/04/16 06:43:25;;;;;;;8.02;6.65;;;3.00;99.90;;;;;;5030591;28;20182;-65
2021/04/16 06:45:58;;;;;;;8.45;6.90;;;3.00;99.90;;;;;;5031331;28;20262;-69
2021/04/16 06:48:24;;;;;;;10.38;7.40;;;3.10;99.90;;;;;;5031334;28;20205;-64
2021/04/16 06:50:52;;;;;;;9.80;6.93;;;3.20;99.90;;;;;;5025678;28;20187;-63
2021/04/16 06:53:17;;;;;;;12.27;8.05;;;3.10;99.90;;;;;;5029317;28;20851;-68
2021/04/16 06:56:00;;;;;;;9.70;7.17;;;3.20;99.90;;;;;;5026459;28;20265;-64
2021/04/16 06:58:28;;;;;;;8.18;7.35;;;3.10;99.90;;;;;;5032640;28;20182;-64
2021/04/16 07:01:05;;;;;;;9.45;7.72;;;3.20;99.90;;;;;;5031274;28;20201;-63
2021/04/16 07:03:47;;;;;;;7.90;6.35;;;3.20;99.90;;;;;;5024334;28;20585;-69
2021/04/16 07:06:25;;;;;;;9.73;7.40;;;3.20;99.90;;;;;;5030446;28;20265;-73
2021/04/16 07:09:05;;;;;;;8.02;6.97;;;3.20;99.90;;;;;;5024823;28;20201;-79
2021/04/16 07:11:35;;;;;;;8.80;6.95;;;3.20;99.90;;;;;;5026632;28;20766;-71
2021/04/16 07:14:03;;;;;;;8.88;7.50;;;3.30;99.90;;;;;;5034006;28;20170;-72
2021/04/16 07:16:32;;;;;;;8.80;7.45;;;3.30;99.90;;;;;;5030909;28;20182;-72
2021/04/16 07:19:26;;;;;;;9.63;7.22;;;3.30;99.90;;;;;;5031090;28;20170;-73
2021/04/16 07:22:20;;;;;;;9.52;7.70;;;3.30;99.90;;;;;;5027152;28;20187;-71
2021/04/16 07:24:48;;;;;;;8.50;7.38;;;3.40;99.90;;;;;;5024962;28;20205;-71
2021/04/16 07:27:42;;;;;;;7.72;6.85;;;3.40;99.90;;;;;;5030603;28;20867;-70
2021/04/16 07:30:24;;;;;;;9.45;6.95;;;3.40;99.90;;;;;;5025873;28;20210;-71
2021/04/16 07:32:51;;;;;;;7.50;6.60;;;3.40;99.90;;;;;;5029805;28;20204;-71
2021/04/16 07:35:16;;;;;;;10.20;7.50;;;3.40;99.90;;;;;;5031820;28;20462;-76
2021/04/16 07:37:47;;;;;;;7.80;6.83;;;3.40;99.90;;;;;;5031978;28;20256;-71
2021/04/16 07:40:22;;;;;;;8.00;7.20;;;3.40;99.90;;;;;;5031393;28;20186;-70
2021/04/16 07:42:50;;;;;;;10.18;7.22;;;3.30;99.90;;;;;;5029429;28;20652;-71
2021/04/16 07:45:24;;;;;;;8.35;6.97;;;3.30;99.90;;;;;;5031297;28;20225;-76
2021/04/16 07:47:52;;;;;;;10.57;7.57;;;3.30;99.90;;;;;;5024508;28;20182;-70
2021/04/16 07:50:27;;;;;;;8.80;7.45;;;3.40;99.90;;;;;;5031522;28;20198;-76
2021/04/16 07:52:53;;;;;;;10.45;7.85;;;3.40;99.90;;;;;;5031859;28;20182;-76
2021/04/16 07:55:23;;;;;;;10.80;8.03;;;3.40;99.90;;;;;;5031448;28;20233;-69
2021/04/16 07:58:13;;;;;;;8.65;7.00;;;3.40;99.90;;;;;;5028270;28;20517;-77
2021/04/16 08:00:41;;;;;;;9.63;7.82;;;3.40;99.90;;;;;;5030429;28;20186;-77
2021/04/16 08:03:25;;;;;;;9.98;7.88;;;3.40;99.90;;;;;;5031019;28;20175;-76
2021/04/16 08:05:53;;;;;;;10.13;8.30;;;3.50;99.90;;;;;;5031255;28;20189;-78
2021/04/16 08:08:20;;;;;;;9.40;8.10;;;3.50;99.90;;;;;;5030283;28;20351;-68
2021/04/16 08:10:49;;;;;;;10.98;8.45;;;3.50;99.90;;;;;;5030786;28;20178;-77
2021/04/16 08:13:23;;;;;;;11.25;8.70;;;3.50;99.90;;;;;;5030676;28;20672;-71
2021/04/16 08:15:49;;;;;;;12.80;8.45;;;3.60;99.90;;;;;;5032463;28;20983;-72
2021/04/16 08:18:32;;;;;;;11.35;8.57;;;3.60;99.90;;;;;;5037769;28;20187;-71
2021/04/16 08:21:18;;;;;;;12.23;8.15;;;3.70;99.90;;;;;;5031062;28;20194;-70
2021/04/16 08:23:59;;;;;;;9.80;8.18;;;3.70;99.90;;;;;;5030884;28;20252;-70
2021/04/16 08:26:30;;;;;;;10.48;8.25;;;3.70;99.90;;;;;;5028519;28;20181;-71
2021/04/16 08:29:22;;;;;;;10.38;8.63;;;3.80;99.90;;;;;;5027150;28;20241;-73
2021/04/16 08:32:07;;;;;;;10.18;8.07;;;3.80;99.90;;;;;;5026447;28;20198;-72
2021/04/16 08:34:43;;;;;;;8.25;7.22;;;3.80;99.90;;;;;;5027796;28;20201;-72
2021/04/16 08:37:14;;;;;;;9.35;7.60;;;3.80;99.90;;;;;;5029282;28;20200;-72
2021/04/16 08:39:42;;;;;;;10.20;8.10;;;3.90;99.90;;;;;;5028956;28;20236;-71
2021/04/16 08:42:23;;;;;;;9.30;7.50;;;3.80;99.90;;;;;;5029211;28;20179;-70
2021/04/16 08:44:54;;;;;;;9.60;7.63;;;3.80;99.90;;;;;;5028634;28;20640;-72
2021/04/16 08:47:46;;;;;;;9.73;7.45;;;3.90;99.90;;;;;;5027882;28;20209;-70
2021/04/16 08:50:12;;;;;;;8.85;7.55;;;3.90;99.90;;;;;;4987469;28;20325;-67
2021/04/16 08:52:49;;;;;;;10.10;7.53;;;4.00;99.90;;;;;;5028422;28;20186;-72
2021/04/16 08:55:39;;;;;;;11.30;8.23;;;4.00;99.90;;;;;;5028856;28;20449;-72
2021/04/16 08:58:37;;;;;;;9.65;7.63;;;4.00;99.90;;;;;;5028788;28;20198;-71
2021/04/16 09:01:11;;;;;;;10.05;7.63;;;4.00;99.90;;;;;;5027200;28;20185;-70
2021/04/16 09:03:47;;;;;;;9.88;7.70;;;4.10;99.90;;;;;;5027961;28;20266;-72
2021/04/16 09:06:31;;;;;;;10.20;7.95;;;4.20;99.90;;;;;;5027610;28;20737;-73
2021/04/16 09:08:59;;;;;;;9.45;7.35;;;4.20;99.90;;;;;;5016834;28;20210;-70
2021/04/16 09:11:45;;;;;;;8.50;6.75;;;4.10;99.90;;;;;;5027448;28;20309;-70
2021/04/16 09:14:34;;;;;;;8.18;7.00;;;4.20;99.90;;;;;;5030510;28;20522;-70
2021/04/16 09:17:01;;;;;;;10.77;7.15;;;4.30;99.90;;;;;;5012953;28;20191;-71
2021/04/16 09:19:27;;;;;;;7.00;6.10;;;4.30;99.90;;;;;;5025465;28;20170;-69
2021/04/16 09:22:02;;;;;;;7.73;6.10;;;4.30;99.90;;;;;;5028185;28;20656;-70
2021/04/16 09:24:55;;;;;;;8.63;6.85;;;4.40;99.90;;;;;;5027871;28;20429;-70
2021/04/16 09:27:37;;;;;;;9.00;6.90;;;4.50;99.90;;;;;;5019257;28;20265;-70
2021/04/16 09:30:06;;;;;;;8.93;7.28;;;4.50;99.90;;;;;;5028219;28;20230;-70
2021/04/16 09:32:34;;;;;;;9.73;8.05;;;4.50;99.90;;;;;;5027485;28;20310;-71
2021/04/16 09:35:18;;;;;;;13.25;8.70;;;4.60;99.90;;;;;;5016383;28;20187;-70
2021/04/16 09:37:45;;;;;;;10.73;9.13;;;4.70;99.90;;;;;;5010519;28;20280;-69
2021/04/16 09:40:14;;;;;;;9.98;7.38;;;4.70;99.90;;;;;;5028396;28;20692;-69
2021/04/16 09:42:44;;;;;;;8.73;7.35;;;4.70;99.90;;;;;;5028385;28;20723;-68
2021/04/16 09:45:32;;;;;;;10.32;8.10;;;4.80;99.90;;;;;;5026769;28;20190;-68
2021/04/16 09:48:28;;;;;;;10.10;7.93;;;4.80;99.90;;;;;;5023773;28;20313;-70
2021/04/16 09:50:56;;;;;;;11.30;8.75;;;4.80;99.90;;;;;;5009301;28;20214;-68
2021/04/16 09:53:26;;;;;;;8.85;7.88;;;4.90;99.90;;;;;;5028517;28;20258;-69
2021/04/16 09:56:01;;;;;;;10.45;7.40;;;4.90;99.90;;;;;;5042352;28;20241;-70
2021/04/16 09:58:33;;;;;;;8.43;7.32;;;5.00;99.90;;;;;;5038983;28;20183;-70
2021/04/16 10:00:58;;;;;;;8.82;7.50;;;5.00;99.90;;;;;;5023068;28;20317;-62
2021/04/16 10:03:42;;;;;;;11.27;7.30;;;4.90;99.90;;;;;;5027514;28;20763;-62
2021/04/16 10:06:29;;;;;;;11.05;8.20;;;5.00;99.90;;;;;;5031062;28;20969;-64
2021/04/16 10:09:17;;;;;;;11.35;8.75;;;5.10;99.90;;;;;;5029934;28;20206;-62
2021/04/16 10:11:59;;;;;;;12.18;8.75;;;5.10;99.90;;;;;;5014679;28;20175;-63
2021/04/16 10:14:25;;;;;;;12.98;8.40;;;5.10;99.90;;;;;;5039526;28;20214;-62
2021/04/16 10:17:11;;;;;;;9.90;7.30;;;5.20;99.90;;;;;;5035291;28;20191;-62
2021/04/16 10:19:39;;;;;;;10.05;8.25;;;5.10;99.90;;;;;;5021081;28;20233;-64
2021/04/16 10:22:09;;;;;;;10.32;8.20;;;5.10;99.90;;;;;;5030561;28;20302;-62
2021/04/16 10:40:08;;;;;;;10.90;8.15;;;5.20;99.90;;;;;;5028529;28;20194;-62
2021/04/16 10:43:31;;;;;;;12.88;9.13;;;5.30;99.90;;;;;;5032253;28;20623;-62
2021/04/16 12:40:12;;;;;;;8.03;7.23;;;7.50;29.80;;;;;;5028676;28;20943;-68
2021/04/16 12:42:38;;;;;;;7.93;7.23;;;7.60;12.00;;;;;;5028647;28;20420;-68
2021/04/16 12:45:04;;;;;;;7.53;6.73;;;7.70;14.70;;;;;;5028753;28;20450;-68
2021/04/16 12:47:31;;;;;;;8.20;6.70;;;7.70;2.90;;;;;;5028252;28;20180;-68
2021/04/16 12:49:59;;;;;;;7.67;6.20;;;7.80;1.00;;;;;;5026485;28;20467;-68
2021/04/16 12:52:25;;;;;;;7.00;6.40;;;7.70;1.00;;;;;;5028070;28;20424;-68
2021/04/16 12:54:53;;;;;;;8.17;7.30;;;7.70;1.00;;;;;;5028194;28;20467;-68
2021/04/16 12:57:18;;;;;;;9.37;7.17;;;7.60;1.00;;;;;;5028185;28;20779;-68
2021/04/16 12:59:44;;;;;;;7.40;6.37;;;7.60;6.50;;;;;;5028195;28;20419;-67
2021/04/16 13:02:20;;;;;;;7.50;6.40;;;7.60;1.00;;;;;;5028035;28;20548;-67
2021/04/16 13:04:45;;;;;;;7.60;6.80;;;7.50;9.30;;;;;;5027132;28;20199;-63
2021/04/16 13:07:11;;;;;;;6.77;6.17;;;7.50;12.60;;;;;;5041037;28;20191;-62
2021/04/16 13:09:38;;;;;;;7.70;6.90;;;7.60;12.40;;;;;;5027722;28;20213;-62
2021/04/16 13:12:04;;;;;;;7.20;6.50;;;7.60;8.50;;;;;;5026539;28;20296;-62
2021/04/16 13:14:30;;;;;;;7.63;6.88;;;7.70;9.70;;;;;;5025751;28;20981;-61
2021/04/16 13:16:55;;;;;;;7.50;6.80;;;7.80;17.60;;;;;;5027655;28;20177;-61
2021/04/16 13:19:30;;;;;;;8.73;6.50;;;7.90;4.20;;;;;;5027322;28;20640;-62
2021/04/16 13:22:19;;;;;;;6.87;6.17;;;7.90;1.00;;;;;;5026689;28;20200;-61
2021/04/16 13:24:46;;;;;;;7.03;6.40;;;8.00;1.00;;;;;;5026390;28;21112;-61
2021/04/16 13:27:33;;;;;;;8.37;6.57;;;8.10;1.00;;;;;;5027054;28;20440;-62
2021/04/16 13:29:59;;;;;;;7.43;6.57;;;8.20;1.00;;;;;;5020315;28;21144;-62
2021/04/16 13:32:29;;;;;;;6.17;5.57;;;8.20;1.00;;;;;;5025988;28;20446;-62
2021/04/16 13:34:56;;;;;;;7.43;5.70;;;8.30;1.00;;;;;;5026207;28;20178;-62
2021/04/16 13:37:28;;;;;;;8.13;5.60;;;8.40;1.00;;;;;;5027494;28;20424;-61
2021/04/16 13:39:54;;;;;;;6.13;5.40;;;8.60;1.00;;;;;;5029755;28;20799;-62
2021/04/16 13:42:20;;;;;;;6.80;6.10;;;8.90;1.00;;;;;;5032194;28;20432;-61
2021/04/16 13:44:46;;;;;;;6.30;5.80;;;9.00;1.00;;;;;;5025673;28;20444;-62
2021/04/16 13:47:19;;;;;;;6.70;5.87;;;9.20;1.00;;;;;;5017548;28;21132;-61
2021/04/16 13:49:45;;;;;;;6.20;5.60;;;9.30;1.00;;;;;;5007096;28;20206;-61
2021/04/16 13:52:11;;;;;;;7.23;5.90;;;9.20;1.00;;;;;;5008197;28;20445;-61
2021/04/16 13:54:37;;;;;;;6.33;5.73;;;9.20;1.00;;;;;;5007240;28;20429;-61
2021/04/16 13:57:05;;;;;;;6.67;5.97;;;9.10;1.00;;;;;;5021404;28;20431;-61
2021/04/16 13:59:31;;;;;;;6.93;5.40;;;9.10;1.00;;;;;;5013657;28;20461;-60
2021/04/16 14:01:58;;;;;;;6.70;5.83;;;9.00;99.90;;;;;;5014559;28;20536;-60
2021/04/16 14:04:27;;;;;;;6.47;5.97;;;9.10;1.00;;;;;;5013564;28;20286;-61
2021/04/16 14:06:57;;;;;;;6.83;6.20;;;9.20;1.00;;;;;;5012078;28;20425;-61
2021/04/16 14:09:25;;;;;;;6.30;5.80;;;9.30;27.50;;;;;;5017775;28;20477;-60
2021/04/16 14:11:54;;;;;;;6.03;5.53;;;9.40;99.90;;;;;;5031478;28;20471;-62
2021/04/16 14:14:28;;;;;;;6.40;5.73;;;9.50;1.00;;;;;;5038548;28;20423;-62
2021/04/16 14:17:10;;;;;;;5.93;5.40;;;9.50;1.00;;;;;;5030670;28;20437;-62
2021/04/16 14:19:53;;;;;;;6.20;5.67;;;9.40;99.90;;;;;;5030115;28;20441;-62
2021/04/16 14:22:33;;;;;;;6.23;5.73;;;9.40;1.00;;;;;;5031711;28;21298;-62
2021/04/16 14:24:59;;;;;;;6.60;5.90;;;9.50;1.00;;;;;;5031078;28;20428;-62
2021/04/16 14:27:25;;;;;;;7.90;5.93;;;9.50;1.00;;;;;;5031148;28;20424;-61
2021/04/16 14:29:51;;;;;;;7.53;5.90;;;9.50;1.00;;;;;;5029613;28;20525;-61
2021/04/16 14:32:19;;;;;;;6.40;5.60;;;9.60;94.90;;;;;;5031569;28;20445;-61
2021/04/16 14:34:45;;;;;;;7.63;6.13;;;10.00;1.00;;;;;;5024641;28;20513;-61
2021/04/16 14:37:11;;;;;;;6.13;5.53;;;10.10;1.00;;;;;;5031139;28;20512;-61
2021/04/16 14:39:37;;;;;;;6.83;6.13;;;10.20;1.00;;;;;;5031610;28;20190;-61
2021/04/16 14:42:03;;;;;;;6.40;5.77;;;10.20;99.90;;;;;;5028863;28;20186;-61
2021/04/16 14:44:29;;;;;;;6.73;5.77;;;10.10;1.00;;;;;;5030767;28;20274;-61
2021/04/16 14:46:55;;;;;;;6.57;6.00;;;10.10;1.00;;;;;;5029802;28;20504;-62
2021/04/16 14:49:27;;;;;;;6.90;6.27;;;10.20;99.90;;;;;;5043241;28;20465;-62
2021/04/16 14:51:55;;;;;;;8.50;5.93;;;10.40;1.00;;;;;;5023671;28;20774;-61
2021/04/16 14:54:24;;;;;;;5.90;5.40;;;10.50;99.90;;;;;;5031028;28;20440;-62
2021/04/16 14:56:50;;;;;;;6.27;5.67;;;10.70;1.00;;;;;;5028145;28;20444;-62
2021/04/16 14:59:43;;;;;;;6.43;5.90;;;11.00;99.90;;;;;;5029914;28;20449;-62
2021/04/16 15:02:08;;;;;;;5.73;5.10;;;11.20;99.90;;;;;;5020542;28;20205;-61
2021/04/16 15:04:34;;;;;;;6.00;5.40;;;11.50;99.90;;;;;;5030795;28;21104;-62
2021/04/16 15:07:07;;;;;;;5.77;5.27;;;11.60;1.00;;;;;;5027903;28;20183;-62
2021/04/16 15:09:42;;;;;;;5.13;4.73;;;11.80;27.00;;;;;;5024033;28;20592;-61
2021/04/16 15:12:13;;;;;;;5.83;5.40;;;12.10;99.90;;;;;;5030593;28;20429;-62
2021/04/16 15:14:39;;;;;;;5.80;5.30;;;12.10;99.90;;;;;;5004332;28;20434;-61
2021/04/16 15:17:05;;;;;;;5.80;5.30;;;12.20;99.90;;;;;;5008529;28;20426;-62
2021/04/16 15:19:33;;;;;;;6.30;5.80;;;12.30;99.90;;;;;;5016422;28;20193;-61